createdAt,value
2019-02-20T00:00:40.861Z,15.60
2019-02-20T00:03:10.320Z,13.70
2019-02-20T00:05:39.748Z,12.83
2019-02-20T00:08:09.194Z,12.23
2019-02-20T00:10:38.624Z,12.40
2019-02-20T00:13:08.072Z,13.63
2019-02-20T00:15:37.579Z,14.53
2019-02-20T00:18:07.015Z,12.17
2019-02-20T00:20:36.450Z,13.37
2019-02-20T00:23:05.897Z,12.23
2019-02-20T00:25:38.215Z,11.77
2019-02-20T00:28:07.655Z,12.10
2019-02-20T00:30:37.085Z,12.43
2019-02-20T00:33:06.737Z,14.33
2019-02-20T00:35:36.206Z,13.97
2019-02-20T00:38:05.668Z,13.17
2019-02-20T00:40:35.174Z,12.37
2019-02-20T00:43:04.621Z,16.37
2019-02-20T00:45:38.127Z,14.90
2019-02-20T00:48:09.231Z,13.70
2019-02-20T00:50:40.306Z,13.67
2019-02-20T00:53:17.043Z,14.67
2019-02-20T00:55:46.495Z,12.67
2019-02-20T00:58:15.915Z,12.10
2019-02-20T01:00:45.361Z,14.17
2019-02-20T01:03:14.800Z,12.77
2019-02-20T01:05:44.223Z,10.63
2019-02-20T01:08:13.666Z,12.27
2019-02-20T01:10:43.095Z,12.60
2019-02-20T01:13:12.532Z,11.60
2019-02-20T01:15:41.973Z,11.33
2019-02-20T01:18:11.412Z,11.73
2019-02-20T01:20:40.846Z,13.57
2019-02-20T01:23:10.361Z,12.13
2019-02-20T01:25:39.823Z,15.17
2019-02-20T01:28:09.252Z,13.73
2019-02-20T01:30:38.677Z,12.87
2019-02-20T01:33:08.121Z,11.93
2019-02-20T01:35:37.548Z,11.50
2019-02-20T01:38:06.998Z,12.60
2019-02-20T01:40:36.424Z,12.57
2019-02-20T01:43:05.881Z,14.77
2019-02-20T01:45:35.303Z,13.33
2019-02-20T01:48:04.728Z,11.53
2019-02-20T01:50:34.182Z,10.90
2019-02-20T01:53:10.072Z,12.17
2019-02-20T01:55:34.780Z,11.47
2019-02-20T01:58:04.239Z,12.50
2019-02-20T02:00:33.680Z,12.87
2019-02-20T02:03:03.106Z,15.23
2019-02-20T02:05:32.574Z,12.47
2019-02-20T02:08:01.998Z,11.60
2019-02-20T02:10:31.446Z,11.70
2019-02-20T02:13:00.874Z,11.77
2019-02-20T02:15:30.313Z,11.17
2019-02-20T02:17:59.770Z,12.03
2019-02-20T02:20:29.277Z,13.30
2019-02-20T02:22:58.708Z,11.53
2019-02-20T02:25:28.146Z,12.97
2019-02-20T02:27:57.592Z,13.43
2019-02-20T02:30:27.039Z,10.60
2019-02-20T02:32:57.386Z,11.80
2019-02-20T02:35:27.003Z,13.27
2019-02-20T02:37:56.440Z,13.40
2019-02-20T02:40:25.896Z,15.00
2019-02-20T02:42:55.323Z,12.33
2019-02-20T02:45:24.799Z,11.60
2019-02-20T02:47:54.222Z,14.73
2019-02-20T02:50:23.669Z,14.57
2019-02-20T02:52:53.109Z,13.30
2019-02-20T02:55:22.553Z,12.40
2019-02-20T02:57:51.980Z,13.60
2019-02-20T03:00:21.429Z,13.77
2019-02-20T03:02:50.876Z,15.60
2019-02-20T03:05:20.314Z,15.20
2019-02-20T03:07:49.747Z,14.60
2019-02-20T03:10:19.205Z,13.63
2019-02-20T03:12:48.621Z,12.20
2019-02-20T03:15:18.094Z,14.13
2019-02-20T03:17:47.578Z,16.70
2019-02-20T03:20:16.983Z,13.73
2019-02-20T03:22:46.422Z,12.23
2019-02-20T03:25:15.872Z,15.87
2019-02-20T03:27:45.300Z,14.60
2019-02-20T03:30:14.742Z,15.20
2019-02-20T03:32:44.192Z,13.97
2019-02-20T03:35:13.638Z,13.80
2019-02-20T03:37:43.069Z,14.30
2019-02-20T03:40:12.592Z,14.93
2019-02-20T03:42:42.047Z,13.00
2019-02-20T03:45:11.480Z,14.60
2019-02-20T03:47:40.914Z,14.03
2019-02-20T03:50:10.545Z,13.70
2019-02-20T03:52:39.972Z,15.40
2019-02-20T03:55:09.446Z,16.07
2019-02-20T03:57:38.869Z,15.20
2019-02-20T04:00:10.921Z,13.53
2019-02-20T04:02:40.347Z,14.77
2019-02-20T04:05:09.874Z,17.00
2019-02-20T04:07:39.312Z,15.73
2019-02-20T04:10:09.225Z,14.10
2019-02-20T04:12:38.697Z,17.00
2019-02-20T04:15:09.102Z,14.87
2019-02-20T04:17:38.538Z,16.73
2019-02-20T04:20:08.858Z,15.67
2019-02-20T04:22:38.300Z,13.67
2019-02-20T04:25:07.819Z,16.33
2019-02-20T04:27:37.253Z,17.40
2019-02-20T04:30:09.638Z,14.07
2019-02-20T04:32:39.093Z,16.63
2019-02-20T04:35:08.611Z,16.03
2019-02-20T04:37:38.037Z,15.70
2019-02-20T04:40:07.857Z,16.30
2019-02-20T04:42:37.296Z,17.83
2019-02-20T04:45:08.186Z,15.83
2019-02-20T04:47:37.614Z,14.50
2019-02-20T04:50:09.511Z,15.87
2019-02-20T04:52:38.936Z,13.87
2019-02-20T04:55:08.385Z,14.80
2019-02-20T04:57:37.825Z,15.50
2019-02-20T05:00:11.874Z,17.33
2019-02-20T05:02:41.303Z,16.10
2019-02-20T05:05:10.753Z,16.23
2019-02-20T05:07:40.208Z,13.53
2019-02-20T05:10:11.250Z,16.83
2019-02-20T05:12:40.703Z,14.57
2019-02-20T05:15:10.154Z,21.20
2019-02-20T05:17:39.619Z,16.10
2019-02-20T05:20:10.209Z,16.33
2019-02-20T05:22:39.646Z,16.47
2019-02-20T05:25:09.093Z,16.20
2019-02-20T05:27:38.590Z,16.40
2019-02-20T05:30:09.517Z,18.10
2019-02-20T05:32:38.942Z,17.13
2019-02-20T05:35:08.395Z,16.93
2019-02-20T05:37:39.647Z,16.53
2019-02-20T05:40:10.949Z,17.13
2019-02-20T05:42:40.382Z,14.97
2019-02-20T05:45:10.071Z,21.77
2019-02-20T05:47:39.513Z,15.47
2019-02-20T05:50:09.353Z,16.23
2019-02-20T05:52:38.815Z,15.27
2019-02-20T05:55:08.708Z,17.37
2019-02-20T05:57:38.134Z,15.67
2019-02-20T06:00:14.651Z,16.73
2019-02-20T06:02:44.064Z,17.17
2019-02-20T06:05:13.536Z,16.43
2019-02-20T06:07:43.065Z,20.00
2019-02-20T06:10:12.522Z,16.87
2019-02-20T06:12:41.997Z,16.47
2019-02-20T06:15:11.883Z,19.07
2019-02-20T06:17:41.318Z,18.63
2019-02-20T06:20:12.009Z,18.23
2019-02-20T06:22:41.457Z,21.33
2019-02-20T06:25:10.991Z,20.20
2019-02-20T06:27:40.459Z,20.60
2019-02-20T06:30:13.630Z,17.97
2019-02-20T06:32:43.061Z,17.93
2019-02-20T06:35:12.548Z,17.80
2019-02-20T06:37:41.990Z,23.17
2019-02-20T06:40:11.618Z,25.17
2019-02-20T06:42:41.121Z,21.60
2019-02-20T06:45:11.918Z,20.63
2019-02-20T06:47:41.360Z,23.07
2019-02-20T06:50:10.940Z,22.43
2019-02-20T06:52:40.363Z,21.60
2019-02-20T06:55:12.323Z,20.37
2019-02-20T06:57:41.782Z,23.80
2019-02-20T07:00:14.043Z,22.33
2019-02-20T07:02:43.494Z,23.73
2019-02-20T07:05:30.965Z,24.43
2019-02-20T07:08:52.498Z,24.20
2019-02-20T07:11:32.251Z,20.50
2019-02-20T07:14:33.549Z,28.47
2019-02-20T07:17:32.019Z,20.70
2019-02-20T07:20:55.959Z,21.10
2019-02-20T07:23:42.128Z,22.53
2019-02-20T07:26:33.519Z,22.63
2019-02-20T07:29:43.587Z,21.67
2019-02-20T07:32:17.086Z,22.50
2019-02-20T07:34:46.559Z,22.50
2019-02-20T07:37:15.998Z,21.67
2019-02-20T07:39:45.442Z,19.83
2019-02-20T07:42:14.892Z,20.57
2019-02-20T07:44:44.362Z,21.00
2019-02-20T07:47:13.814Z,24.30
2019-02-20T07:49:43.260Z,24.57
2019-02-20T07:52:12.716Z,21.90
2019-02-20T07:54:42.140Z,22.43
2019-02-20T07:57:11.609Z,22.17
2019-02-20T07:59:41.058Z,25.60
2019-02-20T08:02:10.508Z,23.23
2019-02-20T08:04:39.959Z,22.60
2019-02-20T08:07:09.390Z,23.87
2019-02-20T08:09:38.841Z,19.77
2019-02-20T08:12:08.286Z,21.87
2019-02-20T08:14:37.740Z,20.33
2019-02-20T08:17:07.331Z,20.83
2019-02-20T08:19:36.805Z,23.53
2019-02-20T08:22:06.238Z,23.33
2019-02-20T08:24:35.704Z,22.83
2019-02-20T08:27:05.133Z,21.50
2019-02-20T08:29:34.585Z,23.83
2019-02-20T08:32:04.040Z,21.33
2019-02-20T08:34:33.471Z,19.93
2019-02-20T08:37:02.899Z,22.37
2019-02-20T08:39:32.383Z,22.67
2019-02-20T08:42:01.838Z,21.53
2019-02-20T08:44:31.271Z,42.47
2019-02-20T08:47:00.717Z,27.50
2019-02-20T08:49:30.204Z,21.67
2019-02-20T08:51:59.632Z,23.33
2019-02-20T08:54:29.112Z,23.03
2019-02-20T08:56:58.527Z,21.97
2019-02-20T08:59:27.995Z,22.80
2019-02-20T09:01:57.448Z,23.80
2019-02-20T09:04:26.890Z,20.43
2019-02-20T09:06:56.325Z,19.50
2019-02-20T09:09:25.796Z,21.57
2019-02-20T09:11:55.243Z,24.30
2019-02-20T09:14:25.700Z,21.60
2019-02-20T09:16:55.145Z,23.83
2019-02-20T09:19:24.605Z,22.27
2019-02-20T09:21:54.048Z,28.07
2019-02-20T09:24:23.489Z,20.47
2019-02-20T09:26:52.936Z,20.03
2019-02-20T09:29:22.403Z,26.33
2019-02-20T09:31:51.834Z,27.57
2019-02-20T09:34:21.276Z,23.90
2019-02-20T09:36:50.793Z,21.83
2019-02-20T09:39:37.246Z,22.03
2019-02-20T09:42:07.992Z,22.50
2019-02-20T09:44:46.317Z,27.17
2019-02-20T09:47:15.752Z,24.70
2019-02-20T09:49:45.216Z,31.47
2019-02-20T09:52:14.670Z,25.00
2019-02-20T09:54:44.133Z,30.87
2019-02-20T09:57:13.599Z,28.80
2019-02-20T09:59:43.103Z,26.23
2019-02-20T10:02:12.556Z,28.60
2019-02-20T10:04:42.017Z,26.30
2019-02-20T10:07:11.448Z,28.00
2019-02-20T10:09:40.916Z,29.03
2019-02-20T10:12:10.368Z,26.50
2019-02-20T10:14:40.370Z,24.80
2019-02-20T10:17:10.041Z,23.80
2019-02-20T10:19:39.503Z,23.63
2019-02-20T10:22:08.952Z,26.57
2019-02-20T10:24:38.397Z,23.37
2019-02-20T10:27:07.860Z,25.47
2019-02-20T10:29:37.286Z,24.60
2019-02-20T10:32:06.751Z,26.93
2019-02-20T10:34:36.184Z,25.43
2019-02-20T10:37:05.640Z,28.40
2019-02-20T10:39:35.081Z,35.60
2019-02-20T10:42:04.575Z,32.53
2019-02-20T10:44:34.044Z,24.67
2019-02-20T10:47:03.491Z,24.07
2019-02-20T10:49:32.945Z,26.30
2019-02-20T10:52:02.391Z,28.70
2019-02-20T10:54:31.840Z,24.60
2019-02-20T10:57:01.297Z,23.73
2019-02-20T10:59:30.801Z,21.37
2019-02-20T11:02:00.265Z,24.43
2019-02-20T11:04:30.892Z,28.77
2019-02-20T11:07:00.437Z,28.63
2019-02-20T11:09:31.814Z,25.70
2019-02-20T11:12:01.060Z,23.13
2019-02-20T11:14:30.502Z,21.37
2019-02-20T11:16:59.952Z,23.27
2019-02-20T11:19:29.385Z,22.70
2019-02-20T11:21:58.839Z,22.17
2019-02-20T11:24:28.280Z,20.17
2019-02-20T11:26:57.730Z,23.70
2019-02-20T11:29:27.170Z,21.63
2019-02-20T11:31:56.653Z,24.07
2019-02-20T11:34:26.078Z,24.83
2019-02-20T11:36:55.534Z,21.23
2019-02-20T11:39:24.974Z,24.40
2019-02-20T11:41:54.442Z,18.40
2019-02-20T11:44:23.888Z,22.10
2019-02-20T11:46:53.348Z,25.63
2019-02-20T11:49:22.789Z,21.47
2019-02-20T11:51:52.254Z,26.40
2019-02-20T11:54:21.695Z,21.77
2019-02-20T11:56:51.142Z,23.63
2019-02-20T11:59:20.574Z,28.63
2019-02-20T12:01:50.037Z,23.70
2019-02-20T12:04:19.469Z,22.93
2019-02-20T12:06:48.933Z,22.87
2019-02-20T12:09:18.450Z,21.93
2019-02-20T12:11:47.897Z,21.70
2019-02-20T12:14:17.346Z,22.07
2019-02-20T12:16:47.470Z,22.13
2019-02-20T12:19:18.235Z,21.93
2019-02-20T12:21:47.860Z,22.40
2019-02-20T12:24:17.361Z,24.47
2019-02-20T12:26:46.815Z,20.47
2019-02-20T12:29:16.247Z,20.20
2019-02-20T12:31:52.317Z,26.70
2019-02-20T12:34:16.946Z,24.67
2019-02-20T12:36:46.403Z,20.60
2019-02-20T12:39:15.915Z,22.97
2019-02-20T12:41:45.384Z,20.57
2019-02-20T12:44:14.827Z,22.67
2019-02-20T12:46:44.310Z,22.70
2019-02-20T12:49:13.764Z,22.03
2019-02-20T12:51:43.227Z,23.73
2019-02-20T12:54:12.673Z,23.10
2019-02-20T12:56:44.186Z,26.07
2019-02-20T12:59:13.453Z,26.60
2019-02-20T13:01:44.209Z,27.47
2019-02-20T13:04:13.621Z,29.37
2019-02-20T13:06:43.074Z,28.40
2019-02-20T13:09:13.907Z,29.37
2019-02-20T13:11:43.456Z,28.90
2019-02-20T13:14:12.899Z,30.47
2019-02-20T13:16:42.339Z,33.77
2019-02-20T13:19:11.805Z,31.77
2019-02-20T13:21:41.246Z,26.67
2019-02-20T13:24:10.687Z,27.37
2019-02-20T13:26:40.130Z,26.13
2019-02-20T13:29:09.572Z,27.07
2019-02-20T13:31:39.095Z,28.97
2019-02-20T13:34:08.516Z,26.27
2019-02-20T13:36:37.971Z,28.43
2019-02-20T13:39:07.438Z,30.37
2019-02-20T13:41:36.882Z,26.43
2019-02-20T13:44:06.404Z,48.37
2019-02-20T13:46:35.852Z,32.77
2019-02-20T13:49:05.293Z,23.13
2019-02-20T13:51:35.263Z,24.43
2019-02-20T13:54:04.772Z,18.90
2019-02-20T13:56:35.144Z,22.67
2019-02-20T13:59:04.583Z,22.33
2019-02-20T14:01:34.032Z,18.00
2019-02-20T14:04:03.640Z,19.20
2019-02-20T14:06:33.618Z,22.03
2019-02-20T14:09:03.742Z,19.53
2019-02-20T14:11:33.204Z,21.63
2019-02-20T14:14:03.048Z,22.50
2019-02-20T14:16:32.511Z,19.20
2019-02-20T14:19:01.959Z,17.87
2019-02-20T14:21:31.714Z,19.30
2019-02-20T14:24:01.167Z,19.77
2019-02-20T14:26:30.800Z,21.67
2019-02-20T14:29:00.310Z,17.87
2019-02-20T14:31:29.798Z,16.97
2019-02-20T14:33:59.229Z,16.57
2019-02-20T14:36:29.068Z,17.20
2019-02-20T14:38:58.511Z,15.70
2019-02-20T14:41:27.977Z,58.30
2019-02-20T14:43:57.433Z,57.80
2019-02-20T14:46:26.897Z,65.87
2019-02-20T14:48:56.336Z,17.77
2019-02-20T14:51:27.558Z,14.60
2019-02-20T14:53:56.961Z,14.77
2019-02-20T14:56:26.412Z,14.13
2019-02-20T14:58:55.856Z,17.00
2019-02-20T15:01:25.337Z,17.80
2019-02-20T15:03:54.789Z,19.63
2019-02-20T15:06:24.253Z,19.10
2019-02-20T15:08:53.700Z,18.50
2019-02-20T15:11:23.212Z,15.70
2019-02-20T15:13:54.220Z,16.30
2019-02-20T15:16:23.793Z,13.73
2019-02-20T15:18:53.256Z,16.73
2019-02-20T15:21:22.706Z,73.73
2019-02-20T15:23:52.148Z,19.40
2019-02-20T15:26:21.610Z,15.50
2019-02-20T15:28:52.602Z,13.63
2019-02-20T15:31:22.112Z,20.90
2019-02-20T15:33:51.529Z,30.03
2019-02-20T15:36:21.015Z,24.43
2019-02-20T15:38:50.455Z,14.13
2019-02-20T15:41:19.910Z,14.77
2019-02-20T15:43:49.384Z,16.53
2019-02-20T15:46:18.827Z,15.33
2019-02-20T15:48:48.323Z,16.17
2019-02-20T15:51:17.760Z,18.67
2019-02-20T15:53:47.244Z,17.50
2019-02-20T15:56:16.690Z,16.30
2019-02-20T15:58:46.234Z,20.10
2019-02-20T16:01:15.750Z,19.07
2019-02-20T16:03:45.317Z,14.83
2019-02-20T16:06:14.760Z,20.13
2019-02-20T16:08:44.410Z,22.50
2019-02-20T16:11:13.856Z,19.97
2019-02-20T16:13:43.436Z,21.37
2019-02-20T16:16:14.277Z,30.57
2019-02-20T16:18:43.939Z,18.40
2019-02-20T16:21:13.386Z,15.90
2019-02-20T16:23:43.229Z,17.87
2019-02-20T16:26:12.669Z,18.63
2019-02-20T16:28:42.133Z,16.93
2019-02-20T16:31:11.581Z,16.73
2019-02-20T16:33:41.077Z,17.23
2019-02-20T16:36:10.526Z,20.23
2019-02-20T16:38:40.370Z,17.23
2019-02-20T16:41:10.185Z,16.63
2019-02-20T16:43:39.646Z,20.47
2019-02-20T16:46:09.162Z,19.50
2019-02-20T16:48:38.672Z,18.17
2019-02-20T16:51:08.101Z,16.23
2019-02-20T16:53:37.847Z,17.93
2019-02-20T16:56:07.294Z,17.00
2019-02-20T16:58:36.834Z,16.77
2019-02-20T17:01:07.714Z,19.23
2019-02-20T17:03:37.194Z,14.10
2019-02-20T17:06:06.640Z,19.83
2019-02-20T17:08:36.506Z,18.50
2019-02-20T17:11:06.028Z,22.63
2019-02-20T17:13:35.507Z,19.30
2019-02-20T17:16:05.118Z,22.73
2019-02-20T17:18:34.570Z,17.53
2019-02-20T17:21:04.007Z,21.50
2019-02-20T17:23:33.760Z,18.60
2019-02-20T17:26:04.181Z,22.77
2019-02-20T17:28:33.663Z,22.20
2019-02-20T17:31:03.083Z,19.23
2019-02-20T17:33:32.632Z,20.40
2019-02-20T17:36:02.097Z,16.73
2019-02-20T17:38:32.003Z,23.73
2019-02-20T17:41:02.405Z,20.80
2019-02-20T17:43:31.932Z,19.97
2019-02-20T17:46:01.491Z,18.70
2019-02-20T17:48:31.064Z,22.10
2019-02-20T17:51:00.666Z,22.10
2019-02-20T17:53:30.617Z,23.73
2019-02-20T17:56:00.111Z,21.60
2019-02-20T17:58:29.587Z,29.07
2019-02-20T18:01:00.598Z,23.53
2019-02-20T18:03:30.071Z,21.53
2019-02-20T18:05:59.523Z,24.27
2019-02-20T18:08:28.961Z,22.47
2019-02-20T18:10:58.440Z,30.83
2019-02-20T18:13:27.881Z,29.23
2019-02-20T18:15:57.401Z,26.37
2019-02-20T18:18:28.133Z,32.43
2019-02-20T18:20:57.699Z,37.13
2019-02-20T18:23:27.148Z,43.97
2019-02-20T18:25:56.603Z,36.83
2019-02-20T18:28:26.067Z,40.23
2019-02-20T18:30:55.534Z,34.30
2019-02-20T18:33:25.040Z,36.00
2019-02-20T18:35:54.511Z,34.77
2019-02-20T18:38:23.952Z,56.60
2019-02-20T18:40:55.614Z,31.67
2019-02-20T18:43:24.615Z,31.60
2019-02-20T18:45:54.151Z,36.67
2019-02-20T18:48:23.618Z,30.33
2019-02-20T18:50:53.071Z,34.10
2019-02-20T18:53:22.534Z,32.73
2019-02-20T18:55:51.989Z,34.37
2019-02-20T18:58:21.427Z,36.97
2019-02-20T19:00:51.025Z,34.20
2019-02-20T19:03:20.578Z,35.60
2019-02-20T19:05:50.121Z,34.00
2019-02-20T19:08:38.749Z,34.67
2019-02-20T19:11:34.149Z,43.33
2019-02-20T19:14:20.059Z,31.20
2019-02-20T19:17:02.994Z,36.80
2019-02-20T19:19:52.257Z,33.90
2019-02-20T19:22:48.897Z,33.20
2019-02-20T19:25:46.876Z,31.53
2019-02-20T19:28:32.260Z,31.47
2019-02-20T19:31:28.363Z,31.70
2019-02-20T19:34:44.992Z,30.67
2019-02-20T19:37:25.601Z,27.00
2019-02-20T19:40:11.580Z,28.70
2019-02-20T19:43:08.310Z,37.17
2019-02-20T19:46:04.599Z,35.60
2019-02-20T19:49:04.199Z,30.97
2019-02-20T19:52:05.637Z,32.13
2019-02-20T19:54:41.988Z,25.50
2019-02-20T19:57:36.794Z,26.43
2019-02-20T20:00:22.957Z,23.30
2019-02-20T20:03:02.968Z,24.13
2019-02-20T20:06:06.116Z,28.20
2019-02-20T20:08:58.535Z,23.80
2019-02-20T20:11:50.939Z,23.27
2019-02-20T20:14:56.236Z,25.03
2019-02-20T20:17:46.932Z,25.67
2019-02-20T20:20:38.598Z,26.63
2019-02-20T20:23:44.474Z,19.50
2019-02-20T20:27:08.692Z,24.50
2019-02-20T20:29:48.639Z,24.13
2019-02-20T20:32:58.868Z,23.60
2019-02-20T20:35:41.875Z,23.83
2019-02-20T20:38:18.819Z,29.60
2019-02-20T20:41:28.660Z,24.00
2019-02-20T20:44:08.073Z,24.83
2019-02-20T20:46:50.672Z,26.10
2019-02-20T20:49:50.387Z,24.80
2019-02-20T20:52:33.159Z,20.87
2019-02-20T20:55:12.816Z,22.23
2019-02-20T20:58:12.395Z,20.63
2019-02-20T21:01:09.027Z,22.37
2019-02-20T21:04:31.934Z,24.80
2019-02-20T21:07:38.186Z,23.10
2019-02-20T21:10:36.363Z,24.70
2019-02-20T21:13:41.983Z,22.63
2019-02-20T21:16:33.301Z,25.43
2019-02-20T21:19:21.021Z,20.53
2019-02-20T21:22:14.814Z,25.37
2019-02-20T21:25:17.436Z,24.40
2019-02-20T21:27:51.604Z,25.53
2019-02-20T21:30:40.725Z,19.30
2019-02-20T21:33:38.727Z,23.37
2019-02-20T21:36:36.823Z,21.50
2019-02-20T21:39:19.954Z,17.90
2019-02-20T21:42:08.166Z,20.17
2019-02-20T21:45:00.859Z,21.17
2019-02-20T21:48:03.181Z,20.40
2019-02-20T21:51:01.241Z,18.63
2019-02-20T21:53:37.961Z,18.73
2019-02-20T21:56:17.894Z,21.30
2019-02-20T21:59:17.475Z,18.80
2019-02-20T22:02:05.995Z,21.83
2019-02-20T22:05:32.986Z,19.97
2019-02-20T22:08:33.974Z,21.40
2019-02-20T22:11:16.669Z,22.43
2019-02-20T22:14:05.851Z,23.00
2019-02-20T22:16:48.847Z,19.47
2019-02-20T22:19:51.557Z,20.03
2019-02-20T22:22:37.624Z,26.00
2019-02-20T22:25:37.404Z,25.33
2019-02-20T22:28:41.086Z,22.50
2019-02-20T22:32:02.587Z,22.30
2019-02-20T22:34:45.647Z,21.83
2019-02-20T22:38:01.939Z,22.10
2019-02-20T22:40:52.936Z,20.07
2019-02-20T22:43:49.503Z,20.33
2019-02-20T22:46:47.730Z,23.43
2019-02-20T22:49:47.393Z,26.17
2019-02-20T22:52:36.183Z,21.93
2019-02-20T22:55:25.010Z,21.30
2019-02-20T22:58:04.813Z,25.23
2019-02-20T23:01:17.243Z,19.23
2019-02-20T23:04:06.251Z,25.30
2019-02-20T23:06:51.429Z,22.60
2019-02-20T23:09:40.493Z,22.10
2019-02-20T23:12:32.481Z,22.73
2019-02-20T23:15:01.902Z,21.10
2019-02-20T23:17:31.333Z,23.00
2019-02-20T23:20:00.777Z,23.73
2019-02-20T23:22:30.209Z,24.30
2019-02-20T23:24:59.678Z,25.30
2019-02-20T23:27:29.174Z,23.37
2019-02-20T23:29:58.652Z,19.67
2019-02-20T23:32:28.095Z,44.17
2019-02-20T23:34:57.537Z,22.43
2019-02-20T23:37:26.978Z,22.80
2019-02-20T23:39:56.426Z,18.10
2019-02-20T23:42:25.867Z,22.13
2019-02-20T23:44:55.315Z,21.47
2019-02-20T23:47:24.741Z,21.43
2019-02-20T23:49:56.436Z,20.47
2019-02-20T23:52:25.349Z,21.43
2019-02-20T23:54:54.793Z,22.63
2019-02-20T23:57:24.223Z,21.37
2019-02-20T23:59:54.346Z,19.80
